Time;durP1;ratioP1;P1;durP2;ratioP2;P2;SDS_P1;SDS_P2;PMS_P1;PMS_P2;Temp;Humidity;BMP_temperature;BMP_pressure;BME280_temperature;BME280_humidity;BME280_pressure;Samples;Min_cycle;Max_cycle;Signal;HPM_P1;HPM_P2
2023/07/06 00:01:42;;;;;;;5.10;2.40;;;15.60;99.90;;;;;;5089270;27;20054;-76
2023/07/06 00:04:28;;;;;;;5.47;2.35;;;15.60;99.90;;;;;;5107719;27;20491;-76
2023/07/06 00:07:20;;;;;;;4.88;2.35;;;15.50;99.90;;;;;;5116404;27;20114;-77
2023/07/06 00:10:06;;;;;;;4.50;2.13;;;15.50;99.90;;;;;;5125965;27;20043;-76
2023/07/06 00:13:01;;;;;;;3.60;2.25;;;15.50;99.90;;;;;;5112881;27;20049;-77
2023/07/06 00:15:48;;;;;;;4.63;2.53;;;15.50;99.90;;;;;;5122956;27;20039;-75
2023/07/06 00:18:34;;;;;;;5.70;2.70;;;15.40;99.90;;;;;;5095637;27;20046;-75
2023/07/06 00:21:20;;;;;;;4.25;2.25;;;15.50;99.90;;;;;;5104369;27;20047;-76
2023/07/06 00:24:07;;;;;;;3.83;2.63;;;15.50;99.90;;;;;;5116993;27;20038;-76
2023/07/06 00:26:53;;;;;;;4.00;2.20;;;15.40;99.90;;;;;;5100027;27;20054;-76
2023/07/06 00:29:46;;;;;;;4.85;2.40;;;15.40;99.90;;;;;;5111254;27;20514;-75
2023/07/06 00:32:32;;;;;;;3.58;2.00;;;15.40;99.90;;;;;;5128110;27;20041;-76
2023/07/06 00:35:19;;;;;;;6.22;2.28;;;15.40;99.90;;;;;;5140412;27;20064;-76
2023/07/06 00:38:09;;;;;;;4.63;2.17;;;15.40;99.90;;;;;;5123382;27;20407;-76
2023/07/06 00:40:57;;;;;;;3.25;2.03;;;15.40;99.90;;;;;;5109722;27;20451;-75
2023/07/06 00:43:52;;;;;;;3.25;2.00;;;15.40;99.90;;;;;;5112273;27;20139;-75
2023/07/06 00:46:39;;;;;;;3.97;2.10;;;15.50;99.90;;;;;;5134246;27;20046;-76
2023/07/06 00:49:26;;;;;;;3.17;2.07;;;15.40;99.90;;;;;;5100929;27;20101;-76
2023/07/06 00:52:12;;;;;;;4.32;2.10;;;15.30;99.90;;;;;;5112722;27;20035;-76
2023/07/06 00:55:01;;;;;;;2.92;2.10;;;15.40;99.90;;;;;;5092512;27;20164;-76
2023/07/06 00:57:51;;;;;;;5.25;2.20;;;15.30;99.90;;;;;;5124038;27;20030;-77
2023/07/06 01:00:37;;;;;;;5.68;2.55;;;15.20;99.90;;;;;;5101591;27;20050;-76
2023/07/06 01:03:23;;;;;;;5.70;2.20;;;15.10;99.90;;;;;;5089612;27;20336;-76
2023/07/06 01:06:16;;;;;;;4.22;2.03;;;15.10;99.90;;;;;;5101346;28;20119;-76
2023/07/06 01:09:04;;;;;;;4.13;2.45;;;15.20;99.90;;;;;;5102706;28;20516;-76
2023/07/06 01:11:50;;;;;;;;;;;15.10;99.90;;;;;;5092661;28;20044;-76
2023/07/06 01:14:36;;;;;;;4.72;2.28;;;15.10;99.90;;;;;;5089407;28;19919;-76
2023/07/06 01:17:25;;;;;;;4.10;2.30;;;15.10;99.90;;;;;;5092928;28;20380;-76
2023/07/06 01:20:23;;;;;;;4.57;2.25;;;15.00;99.90;;;;;;5080860;28;20130;-76
2023/07/06 01:23:38;;;;;;;3.80;2.05;;;15.10;99.90;;;;;;5103500;27;20043;-77
2023/07/06 01:26:40;;;;;;;4.20;2.30;;;15.10;99.90;;;;;;5112364;27;20042;-75
2023/07/06 01:29:52;;;;;;;3.72;2.03;;;15.10;99.90;;;;;;5098952;28;20035;-75
2023/07/06 01:32:39;;;;;;;4.82;2.50;;;15.20;99.90;;;;;;5114729;27;20134;-76
2023/07/06 01:35:29;;;;;;;4.72;1.90;;;15.10;99.90;;;;;;5098321;27;20067;-75
2023/07/06 01:38:14;;;;;;;3.00;1.92;;;15.10;99.90;;;;;;5091246;28;20050;-76
2023/07/06 01:41:02;;;;;;;4.85;2.17;;;15.10;99.90;;;;;;5112426;27;20150;-77
2023/07/06 01:43:48;;;;;;;4.97;2.47;;;15.00;99.90;;;;;;5097786;28;20054;-77
2023/07/06 01:46:34;;;;;;;4.13;2.42;;;15.00;99.90;;;;;;5100110;28;20070;-76
2023/07/06 01:49:20;;;;;;;5.68;2.50;;;15.00;99.90;;;;;;5092566;28;20032;-76
2023/07/06 01:52:28;;;;;;;3.53;2.30;;;15.00;99.90;;;;;;5098536;27;20031;-75
2023/07/06 01:55:17;;;;;;;4.75;2.63;;;15.00;99.90;;;;;;5122956;27;20635;-75
2023/07/06 01:58:37;;;;;;;4.18;2.38;;;15.10;99.90;;;;;;5111416;27;20070;-77
2023/07/06 02:01:26;;;;;;;5.32;2.35;;;15.10;99.90;;;;;;5099703;27;20035;-75
2023/07/06 02:04:13;;;;;;;3.97;2.40;;;15.10;99.90;;;;;;5096247;28;20092;-77
2023/07/06 02:07:00;;;;;;;5.25;2.25;;;15.00;99.90;;;;;;5093288;28;20032;-77
2023/07/06 02:09:47;;;;;;;4.95;2.47;;;15.10;99.90;;;;;;5079464;28;20031;-77
2023/07/06 02:12:33;;;;;;;4.00;2.50;;;15.00;99.90;;;;;;5090693;28;20528;-77
2023/07/06 02:15:19;;;;;;;5.10;2.30;;;15.10;99.90;;;;;;5086483;28;20032;-76
2023/07/06 02:18:05;;;;;;;4.60;2.47;;;15.10;99.90;;;;;;5110233;28;20073;-77
2023/07/06 02:20:54;;;;;;;5.85;2.38;;;15.10;99.90;;;;;;5091857;28;20357;-76
2023/07/06 02:23:39;;;;;;;5.43;2.40;;;15.20;99.90;;;;;;5087631;28;20047;-77
2023/07/06 02:26:26;;;;;;;5.15;2.53;;;15.20;99.90;;;;;;5084607;28;20035;-77
2023/07/06 02:29:12;;;;;;;4.47;2.70;;;15.20;99.90;;;;;;5110826;28;20049;-76
2023/07/06 02:31:58;;;;;;;6.38;3.20;;;15.20;99.90;;;;;;5080433;28;20040;-76
2023/07/06 02:34:45;;;;;;;4.32;3.35;;;15.10;99.90;;;;;;5076209;28;20036;-77
2023/07/06 02:37:34;;;;;;;5.32;2.50;;;15.20;99.90;;;;;;5113875;28;20042;-77
2023/07/06 02:40:20;;;;;;;5.25;3.00;;;15.10;99.90;;;;;;5091054;28;20028;-76
2023/07/06 02:43:07;;;;;;;6.70;2.95;;;15.20;99.90;;;;;;5068994;28;20384;-78
2023/07/06 02:45:53;;;;;;;4.57;2.67;;;15.10;99.90;;;;;;5075706;28;20050;-76
2023/07/06 02:48:39;;;;;;;4.70;2.90;;;15.20;99.90;;;;;;5108828;28;20595;-75
2023/07/06 02:51:25;;;;;;;5.47;2.92;;;15.10;99.90;;;;;;5084068;28;20190;-75
2023/07/06 02:54:15;;;;;;;6.53;3.08;;;15.20;99.90;;;;;;5099151;28;20739;-76
2023/07/06 02:57:02;;;;;;;6.57;3.30;;;15.20;99.90;;;;;;5081688;28;20038;-76
2023/07/06 02:59:48;;;;;;;5.88;2.90;;;15.20;99.90;;;;;;5079179;28;20035;-76
2023/07/06 03:02:34;;;;;;;5.05;3.42;;;15.10;99.90;;;;;;5098423;28;20054;-76
2023/07/06 03:05:23;;;;;;;5.50;3.00;;;15.20;99.90;;;;;;5087903;28;20480;-76
2023/07/06 03:08:09;;;;;;;6.38;3.20;;;15.20;99.90;;;;;;5113210;28;20031;-76
2023/07/06 03:10:55;;;;;;;4.35;2.80;;;15.20;99.90;;;;;;5121521;27;20114;-75
2023/07/06 03:13:41;;;;;;;6.20;3.13;;;15.20;99.90;;;;;;5102611;28;20054;-76
2023/07/06 03:16:27;;;;;;;7.03;3.28;;;15.20;99.90;;;;;;5101211;27;20121;-75
2023/07/06 03:19:13;;;;;;;4.97;3.20;;;15.20;99.90;;;;;;5094428;28;20134;-76
2023/07/06 03:21:59;;;;;;;5.45;3.78;;;15.20;99.90;;;;;;5098462;28;20125;-76
2023/07/06 03:24:45;;;;;;;5.22;3.28;;;15.10;99.90;;;;;;5081071;27;20115;-77
2023/07/06 03:27:31;;;;;;;5.95;3.45;;;15.10;99.90;;;;;;5123368;27;20034;-77
2023/07/06 03:30:20;;;;;;;5.43;3.58;;;15.10;99.90;;;;;;5092583;27;20039;-75
2023/07/06 03:33:06;;;;;;;5.80;3.25;;;15.10;99.90;;;;;;5095154;27;20039;-77
2023/07/06 03:35:58;;;;;;;6.78;3.90;;;15.00;99.90;;;;;;5106501;27;20073;-76
2023/07/06 03:38:47;;;;;;;5.88;3.65;;;15.00;99.90;;;;;;5098090;28;20039;-76
2023/07/06 03:41:33;;;;;;;6.40;3.50;;;15.00;99.90;;;;;;5141089;27;20041;-77
2023/07/06 03:44:21;;;;;;;6.22;4.10;;;15.00;99.90;;;;;;5132401;27;20114;-76
2023/07/06 03:47:07;;;;;;;6.70;4.07;;;14.90;99.90;;;;;;5117873;27;20359;-76
2023/07/06 03:49:54;;;;;;;6.80;3.67;;;15.00;99.90;;;;;;5124386;27;20034;-77
2023/07/06 03:52:41;;;;;;;6.97;4.22;;;14.90;99.90;;;;;;5098565;28;20185;-74
2023/07/06 03:55:27;;;;;;;7.72;3.90;;;14.90;99.90;;;;;;5082272;27;20092;-77
2023/07/06 03:58:13;;;;;;;8.55;4.60;;;14.90;99.90;;;;;;5098063;27;20039;-76
2023/07/06 04:00:59;;;;;;;6.47;4.10;;;14.90;99.90;;;;;;5116276;27;20689;-74
2023/07/06 04:03:45;;;;;;;8.05;4.43;;;14.90;99.90;;;;;;5098333;27;20043;-76
2023/07/06 04:06:31;;;;;;;7.30;4.38;;;14.90;99.90;;;;;;5091298;27;20376;-76
2023/07/06 04:09:17;;;;;;;7.18;3.78;;;14.90;99.90;;;;;;5099852;27;20043;-76
2023/07/06 04:12:03;;;;;;;6.82;4.60;;;14.90;99.90;;;;;;5098655;27;20035;-76
2023/07/06 04:14:49;;;;;;;6.70;4.90;;;14.90;99.90;;;;;;5114134;27;20107;-75
2023/07/06 04:17:36;;;;;;;8.00;4.45;;;14.80;99.90;;;;;;5116060;27;20039;-76
2023/07/06 04:20:28;;;;;;;7.47;5.50;;;14.90;99.90;;;;;;5104320;27;20062;-75
2023/07/06 04:23:15;;;;;;;7.80;5.40;;;14.80;99.90;;;;;;5104430;27;20042;-76
2023/07/06 04:26:01;;;;;;;7.60;6.03;;;14.80;99.90;;;;;;5119163;27;20411;-76
2023/07/06 04:28:48;;;;;;;8.70;5.40;;;14.80;99.90;;;;;;5097297;27;20027;-77
2023/07/06 04:31:36;;;;;;;9.45;5.85;;;14.90;99.90;;;;;;5099618;27;20107;-76
2023/07/06 04:34:23;;;;;;;10.70;5.90;;;15.00;99.90;;;;;;5122221;27;20337;-77
2023/07/06 04:37:09;;;;;;;7.57;5.30;;;14.90;99.90;;;;;;5130909;27;20121;-76
2023/07/06 04:39:57;;;;;;;7.63;5.30;;;15.00;99.90;;;;;;5116277;27;20035;-77
2023/07/06 04:42:43;;;;;;;6.97;4.78;;;15.10;99.90;;;;;;5107462;27;20649;-76
2023/07/06 04:45:29;;;;;;;9.60;5.40;;;15.10;99.90;;;;;;5114221;27;20037;-75
2023/07/06 04:48:16;;;;;;;7.93;5.65;;;15.10;99.90;;;;;;5094658;27;20043;-76
2023/07/06 04:51:05;;;;;;;10.77;6.00;;;15.10;99.90;;;;;;5107279;27;20481;-76
2023/07/06 04:53:51;;;;;;;9.93;5.88;;;15.00;99.90;;;;;;5111148;27;20039;-75
2023/07/06 04:56:37;;;;;;;7.70;5.25;;;15.20;99.90;;;;;;5110644;27;20748;-75
2023/07/06 04:59:23;;;;;;;8.38;5.80;;;15.20;99.90;;;;;;5126623;27;20030;-75
2023/07/06 05:02:10;;;;;;;9.65;5.45;;;15.20;99.90;;;;;;5104846;27;20157;-76
2023/07/06 05:05:00;;;;;;;8.63;6.32;;;15.20;99.90;;;;;;5115663;27;20042;-77
2023/07/06 05:07:46;;;;;;;12.77;5.40;;;15.20;99.90;;;;;;5110486;27;20103;-76
2023/07/06 05:10:34;;;;;;;9.43;5.32;;;15.30;99.90;;;;;;5109651;27;20179;-74
2023/07/06 05:13:20;;;;;;;9.45;5.30;;;15.30;99.90;;;;;;5095292;27;20114;-76
2023/07/06 05:16:06;;;;;;;7.75;5.57;;;15.30;99.90;;;;;;5100518;27;20070;-75
2023/07/06 05:18:52;;;;;;;9.43;5.53;;;15.30;99.90;;;;;;5093575;27;20101;-76
2023/07/06 05:21:38;;;;;;;7.88;4.82;;;15.30;99.90;;;;;;5080214;27;20062;-76
2023/07/06 05:24:25;;;;;;;9.23;4.90;;;15.30;99.90;;;;;;5125906;27;20466;-75
2023/07/06 05:27:11;;;;;;;6.43;4.40;;;15.30;99.90;;;;;;5109536;27;20122;-76
2023/07/06 05:29:57;;;;;;;8.50;4.80;;;15.40;99.90;;;;;;5101972;27;20022;-76
2023/07/06 05:32:43;;;;;;;9.02;4.90;;;15.50;99.90;;;;;;5104683;27;20051;-75
2023/07/06 05:35:29;;;;;;;6.38;4.70;;;15.40;99.90;;;;;;5113317;27;20027;-75
2023/07/06 05:38:15;;;;;;;8.75;4.95;;;15.40;99.90;;;;;;5134078;27;20046;-75
2023/07/06 05:41:01;;;;;;;10.68;5.45;;;15.50;99.90;;;;;;5100843;27;20099;-76
2023/07/06 05:43:47;;;;;;;8.57;5.05;;;15.50;99.90;;;;;;5123568;27;20091;-74
2023/07/06 05:46:33;;;;;;;7.30;4.95;;;15.40;99.90;;;;;;5113683;27;20363;-75
2023/07/06 05:49:19;;;;;;;10.23;5.05;;;15.50;99.90;;;;;;5106158;27;20364;-76
2023/07/06 05:52:06;;;;;;;8.40;5.18;;;15.60;99.90;;;;;;5094183;27;20102;-76
2023/07/06 05:54:52;;;;;;;10.13;5.20;;;15.60;99.90;;;;;;5109242;27;20034;-75
2023/07/06 05:57:38;;;;;;;7.63;4.55;;;15.60;99.90;;;;;;5110766;27;20043;-76
2023/07/06 06:00:24;;;;;;;7.13;4.40;;;15.60;99.90;;;;;;5099649;27;20364;-77
2023/07/06 06:03:11;;;;;;;7.15;4.47;;;15.60;99.90;;;;;;5109355;27;20055;-76
2023/07/06 06:06:00;;;;;;;7.80;4.70;;;15.70;99.90;;;;;;5091078;28;20047;-75
2023/07/06 06:08:47;;;;;;;7.15;4.28;;;15.70;99.90;;;;;;5102079;27;20074;-76
2023/07/06 06:11:33;;;;;;;7.68;3.90;;;15.60;99.90;;;;;;5098029;28;20058;-75
2023/07/06 06:14:20;;;;;;;8.88;4.63;;;15.70;99.90;;;;;;5082983;28;20552;-77
2023/07/06 06:17:07;;;;;;;6.40;4.37;;;15.80;99.90;;;;;;5123255;27;20043;-75
2023/07/06 06:19:54;;;;;;;5.60;4.13;;;15.90;99.90;;;;;;5120030;27;20109;-76
2023/07/06 06:22:40;;;;;;;9.88;4.57;;;15.80;99.90;;;;;;5100968;28;20039;-76
2023/07/06 06:25:27;;;;;;;6.07;4.00;;;16.00;99.90;;;;;;5119196;27;20061;-76
2023/07/06 06:28:13;;;;;;;5.75;3.70;;;16.00;99.90;;;;;;5105304;28;20039;-75
2023/07/06 06:31:01;;;;;;;7.32;3.70;;;16.00;99.90;;;;;;5085643;27;20126;-76
2023/07/06 06:33:47;;;;;;;8.10;4.03;;;16.10;99.90;;;;;;5090365;28;20089;-75
2023/07/06 06:36:33;;;;;;;7.40;4.07;;;16.00;99.90;;;;;;5112398;28;20117;-75
2023/07/06 06:39:19;;;;;;;7.90;3.90;;;16.00;99.90;;;;;;5116420;28;20156;-75
2023/07/06 06:42:05;;;;;;;6.38;4.20;;;16.00;99.90;;;;;;5089574;28;20104;-75
2023/07/06 06:44:51;;;;;;;6.60;3.78;;;16.10;99.90;;;;;;5115192;27;20072;-77
2023/07/06 06:47:37;;;;;;;11.07;3.78;;;16.20;99.90;;;;;;5120247;27;20039;-75
2023/07/06 06:50:23;;;;;;;8.77;3.70;;;16.20;99.90;;;;;;5106963;28;20027;-76
2023/07/06 06:53:11;;;;;;;7.47;3.55;;;16.20;99.90;;;;;;5098486;27;20104;-77
2023/07/06 06:55:57;;;;;;;5.60;3.03;;;16.30;99.90;;;;;;5117332;27;20125;-74
2023/07/06 06:58:43;;;;;;;6.15;3.60;;;16.40;99.90;;;;;;5101917;27;20046;-75
2023/07/06 07:01:30;;;;;;;5.38;3.35;;;16.40;99.90;;;;;;5112283;27;20475;-75
2023/07/06 07:04:16;;;;;;;14.18;3.90;;;16.40;99.90;;;;;;5104802;27;20487;-76
2023/07/06 07:07:03;;;;;;;6.45;3.22;;;16.60;99.90;;;;;;5111378;27;20096;-76
2023/07/06 07:09:51;;;;;;;7.43;3.53;;;16.60;99.90;;;;;;5104446;27;20121;-76
2023/07/06 07:12:40;;;;;;;8.93;3.30;;;16.60;99.90;;;;;;5098733;27;20470;-76
2023/07/06 07:15:26;;;;;;;7.47;3.10;;;16.60;99.90;;;;;;5103306;27;20490;-75
2023/07/06 07:18:12;;;;;;;10.00;2.83;;;16.70;99.90;;;;;;5116103;27;20089;-77
2023/07/06 07:20:58;;;;;;;9.02;2.92;;;16.80;99.90;;;;;;5127922;27;20050;-77
2023/07/06 07:23:53;;;;;;;8.43;2.85;;;16.90;99.90;;;;;;5070130;28;20411;-76
2023/07/06 07:26:40;;;;;;;7.88;2.70;;;17.00;99.90;;;;;;5071055;28;20669;-77
2023/07/06 07:29:27;;;;;;;7.32;2.70;;;17.40;99.90;;;;;;5064371;28;20064;-77
2023/07/06 07:32:14;;;;;;;5.17;2.20;;;17.40;99.90;;;;;;5042473;28;20037;-76
2023/07/06 07:35:01;;;;;;;7.43;2.40;;;17.20;99.90;;;;;;5056300;28;20533;-77
2023/07/06 07:37:50;;;;;;;7.07;2.72;;;17.40;99.90;;;;;;5047851;28;20048;-77
2023/07/06 07:40:36;;;;;;;9.00;2.70;;;17.50;99.90;;;;;;5068999;28;20101;-77
2023/07/06 07:43:32;;;;;;;10.13;3.00;;;17.90;99.90;;;;;;5051836;28;20098;-77
2023/07/06 07:46:19;;;;;;;7.30;2.70;;;17.80;99.90;;;;;;5052975;28;20101;-77
2023/07/06 07:49:05;;;;;;;9.27;2.55;;;17.90;99.90;;;;;;5046745;28;20033;-78
2023/07/06 07:51:51;;;;;;;6.20;2.45;;;17.70;99.90;;;;;;5056046;28;20137;-78
2023/07/06 07:54:37;;;;;;;7.93;2.25;;;17.90;99.90;;;;;;5040942;28;20051;-78
2023/07/06 07:57:23;;;;;;;6.32;2.50;;;17.90;99.90;;;;;;5058607;28;20044;-78
2023/07/06 08:00:10;;;;;;;6.65;2.70;;;18.00;99.90;;;;;;5063367;28;20036;-79
2023/07/06 08:02:56;;;;;;;4.93;2.47;;;18.10;99.90;;;;;;5056151;28;20044;-78
2023/07/06 08:05:42;;;;;;;8.30;2.50;;;18.00;99.90;;;;;;5042283;28;20477;-78
2023/07/06 08:08:32;;;;;;;4.43;2.35;;;18.30;99.90;;;;;;5045804;28;20080;-79
2023/07/06 08:11:23;;;;;;;5.70;2.40;;;18.10;99.90;;;;;;5047954;28;20473;-79
2023/07/06 08:14:09;;;;;;;5.15;2.20;;;18.00;99.90;;;;;;5069386;28;20323;-78
2023/07/06 08:16:58;;;;;;;8.73;2.22;;;18.30;99.60;;;;;;5061033;28;20044;-78
2023/07/06 08:19:45;;;;;;;5.22;2.30;;;18.30;99.50;;;;;;5069643;28;20434;-79
2023/07/06 08:22:32;;;;;;;3.70;1.80;;;18.30;99.40;;;;;;5052328;28;20060;-78
2023/07/06 08:25:19;;;;;;;5.40;2.00;;;18.40;99.40;;;;;;5042310;28;20047;-78
2023/07/06 08:28:06;;;;;;;8.48;2.75;;;18.40;99.50;;;;;;5070310;28;20033;-78
2023/07/06 08:30:52;;;;;;;5.00;2.13;;;18.30;99.50;;;;;;5050498;28;20390;-78
2023/07/06 08:33:38;;;;;;;4.72;2.20;;;18.30;99.40;;;;;;5061908;28;20041;-78
2023/07/06 08:36:25;;;;;;;3.95;2.20;;;18.30;98.60;;;;;;5041345;28;20368;-78
2023/07/06 08:39:11;;;;;;;5.30;1.90;;;18.40;98.70;;;;;;5051158;28;20048;-79
2023/07/06 08:41:57;;;;;;;6.35;2.08;;;18.50;99.20;;;;;;5037270;28;20037;-78
2023/07/06 08:44:50;;;;;;;4.45;1.88;;;18.90;99.10;;;;;;5056868;28;20044;-78
2023/07/06 08:47:37;;;;;;;5.05;2.10;;;18.80;97.70;;;;;;5034600;28;20037;-77
2023/07/06 08:50:28;;;;;;;4.70;1.60;;;18.70;96.80;;;;;;5039612;28;20547;-78
2023/07/06 08:53:14;;;;;;;4.32;1.42;;;18.70;96.20;;;;;;5024724;28;20485;-78
2023/07/06 08:56:04;;;;;;;3.55;1.60;;;18.50;95.70;;;;;;5053838;28;20040;-78
2023/07/06 08:58:50;;;;;;;5.25;2.00;;;18.60;96.90;;;;;;5026809;28;20043;-78
2023/07/06 09:01:37;;;;;;;4.57;1.77;;;18.80;96.70;;;;;;5023014;28;20054;-78
2023/07/06 09:04:24;;;;;;;3.95;1.95;;;18.90;96.70;;;;;;5048866;28;20040;-78
2023/07/06 09:07:13;;;;;;;5.00;1.80;;;19.00;96.70;;;;;;5023955;28;20052;-78
2023/07/06 09:09:58;;;;;;;4.82;2.10;;;19.30;95.80;;;;;;5040363;28;20059;-79
2023/07/06 09:12:44;;;;;;;4.63;1.85;;;19.10;96.00;;;;;;5038542;28;20041;-78
2023/07/06 09:15:31;;;;;;;3.25;1.88;;;19.10;96.90;;;;;;5038671;28;20095;-78
2023/07/06 09:18:17;;;;;;;4.15;1.88;;;19.30;96.90;;;;;;5041724;28;20064;-78
2023/07/06 09:21:04;;;;;;;4.13;1.83;;;19.30;96.20;;;;;;5050777;28;20041;-78
2023/07/06 09:23:50;;;;;;;4.07;1.90;;;19.30;96.00;;;;;;5023224;28;20045;-78
2023/07/06 09:26:37;;;;;;;3.92;1.73;;;19.20;96.00;;;;;;5037391;28;20037;-77
2023/07/06 09:29:35;;;;;;;5.25;2.08;;;19.20;96.20;;;;;;5025879;28;20037;-78
2023/07/06 09:32:21;;;;;;;4.22;1.77;;;19.00;96.70;;;;;;5052783;28;20037;-78
2023/07/06 09:35:20;;;;;;;4.45;1.77;;;19.20;96.40;;;;;;5034690;28;20406;-77
2023/07/06 09:38:06;;;;;;;3.55;1.83;;;19.50;95.50;;;;;;5049327;28;20060;-78
2023/07/06 09:40:52;;;;;;;5.20;1.95;;;19.40;96.10;;;;;;5040976;28;20037;-78
2023/07/06 09:43:38;;;;;;;4.70;1.90;;;19.60;95.40;;;;;;5026718;28;20063;-78
2023/07/06 09:46:31;;;;;;;5.72;1.77;;;19.50;94.70;;;;;;5020096;28;20040;-77
2023/07/06 09:49:19;;;;;;;4.53;1.70;;;19.40;94.80;;;;;;5007721;28;20116;-78
2023/07/06 09:52:09;;;;;;;8.07;2.45;;;19.60;95.40;;;;;;5037586;28;20052;-78
2023/07/06 09:55:19;;;;;;;3.70;1.80;;;19.60;94.30;;;;;;5022001;28;20041;-78
2023/07/06 09:58:07;;;;;;;3.55;1.90;;;19.60;94.90;;;;;;5046960;28;20119;-77
2023/07/06 10:01:14;;;;;;;4.70;2.03;;;19.50;93.80;;;;;;5013816;28;20041;-76
2023/07/06 10:04:24;;;;;;;5.82;2.22;;;19.40;94.70;;;;;;5042940;28;20227;-79
2023/07/06 10:07:36;;;;;;;5.93;2.08;;;19.60;94.10;;;;;;5033179;28;20044;-79
2023/07/06 10:10:38;;;;;;;5.00;2.20;;;19.50;94.50;;;;;;5040855;28;20082;-78
2023/07/06 10:13:31;;;;;;;3.92;1.80;;;19.70;94.60;;;;;;5020183;28;20033;-78
2023/07/06 10:16:28;;;;;;;5.90;1.73;;;19.70;94.00;;;;;;5042004;28;20046;-78
2023/07/06 10:19:21;;;;;;;5.85;1.80;;;19.70;94.00;;;;;;5052757;28;20048;-79
2023/07/06 10:22:10;;;;;;;7.18;2.22;;;20.00;94.90;;;;;;5037767;28;20474;-79
2023/07/06 10:25:18;;;;;;;4.38;1.70;;;20.00;93.60;;;;;;5045955;28;20033;-79
2023/07/06 10:28:11;;;;;;;5.05;1.98;;;20.20;93.60;;;;;;5047848;28;20052;-78
2023/07/06 10:30:57;;;;;;;5.03;2.13;;;20.20;92.50;;;;;;5026841;28;20120;-77
2023/07/06 10:34:02;;;;;;;4.32;1.90;;;20.10;92.20;;;;;;5030257;28;20037;-78
2023/07/06 10:36:48;;;;;;;6.32;2.10;;;20.20;92.60;;;;;;5031742;28;20045;-78
2023/07/06 10:39:43;;;;;;;4.70;1.80;;;20.20;92.00;;;;;;5032203;28;20749;-77
2023/07/06 10:42:32;;;;;;;4.90;1.63;;;20.30;91.90;;;;;;5043211;28;20052;-74
2023/07/06 10:45:37;;;;;;;4.68;1.70;;;20.10;90.50;;;;;;5024461;28;20037;-74
2023/07/06 10:48:43;;;;;;;5.55;1.50;;;19.90;91.30;;;;;;5029357;28;20080;-76
2023/07/06 10:51:29;;;;;;;5.95;1.58;;;20.10;90.80;;;;;;5044513;28;20028;-75
2023/07/06 10:54:17;;;;;;;4.93;1.98;;;19.90;90.70;;;;;;5035984;28;20057;-77
2023/07/06 10:57:10;;;;;;;6.40;1.85;;;19.90;91.30;;;;;;5038590;28;20041;-76
2023/07/06 11:00:03;;;;;;;5.07;1.63;;;19.90;91.90;;;;;;5035393;28;20535;-75
2023/07/06 11:02:54;;;;;;;3.30;1.88;;;20.10;92.40;;;;;;5041309;28;20489;-76
2023/07/06 11:05:54;;;;;;;3.53;1.73;;;20.30;92.30;;;;;;5044428;28;20477;-76
2023/07/06 11:09:01;;;;;;;4.22;1.73;;;20.60;91.90;;;;;;5032901;28;20038;-76
2023/07/06 11:11:48;;;;;;;5.43;1.83;;;20.70;89.90;;;;;;5042414;28;20037;-76
2023/07/06 11:14:39;;;;;;;5.18;1.80;;;20.80;91.70;;;;;;5039031;28;20077;-76
2023/07/06 11:17:36;;;;;;;3.75;1.60;;;20.90;91.40;;;;;;5025557;28;20773;-76
2023/07/06 11:20:26;;;;;;;4.95;1.50;;;21.00;90.60;;;;;;5023125;28;20129;-74
2023/07/06 11:23:14;;;;;;;3.22;1.60;;;21.10;88.60;;;;;;5036823;28;20056;-75
2023/07/06 11:26:01;;;;;;;4.75;1.75;;;21.00;89.20;;;;;;5024026;28;20030;-75
2023/07/06 11:28:46;;;;;;;3.35;1.45;;;20.80;88.30;;;;;;5027353;28;20034;-77
2023/07/06 11:31:58;;;;;;;3.88;1.73;;;21.00;89.20;;;;;;5010845;28;20077;-77
2023/07/06 11:35:07;;;;;;;3.67;1.40;;;21.20;87.80;;;;;;5025214;28;20041;-76
2023/07/06 11:38:09;;;;;;;2.92;1.35;;;21.20;85.20;;;;;;5048029;28;20135;-75
2023/07/06 11:41:10;;;;;;;5.28;1.20;;;21.20;85.60;;;;;;5039109;28;20737;-77
2023/07/06 11:44:31;;;;;;;5.03;1.80;;;21.50;84.70;;;;;;5034215;28;20063;-77
2023/07/06 11:47:29;;;;;;;3.28;1.42;;;21.40;84.00;;;;;;5045035;28;20072;-78
2023/07/06 11:50:16;;;;;;;3.33;1.40;;;21.60;86.10;;;;;;5043163;28;20506;-75
2023/07/06 11:53:29;;;;;;;3.08;1.30;;;21.40;82.20;;;;;;5030812;28;20045;-76
2023/07/06 11:56:32;;;;;;;3.05;1.40;;;21.40;84.20;;;;;;5025906;28;20373;-80
2023/07/06 11:59:37;;;;;;;6.20;1.60;;;21.60;86.00;;;;;;5020755;28;20033;-81
2023/07/06 12:02:27;;;;;;;3.83;1.42;;;21.60;85.20;;;;;;5033061;28;20037;-80
2023/07/06 12:05:21;;;;;;;2.95;1.40;;;21.80;85.20;;;;;;5032419;28;20053;-81
2023/07/06 12:08:16;;;;;;;4.50;1.20;;;21.50;83.90;;;;;;5028676;28;20068;-81
2023/07/06 12:11:15;;;;;;;3.88;1.45;;;21.80;83.10;;;;;;5036920;28;20683;-80
2023/07/06 12:14:03;;;;;;;5.43;1.52;;;21.80;83.60;;;;;;5032520;28;20123;-79
2023/07/06 12:16:50;;;;;;;3.75;1.33;;;21.50;83.90;;;;;;5024808;28;20116;-78
2023/07/06 12:19:37;;;;;;;4.68;1.58;;;21.60;84.10;;;;;;5046066;28;20037;-78
2023/07/06 12:22:23;;;;;;;5.55;1.25;;;22.00;82.60;;;;;;5025333;28;20053;-79
2023/07/06 12:25:20;;;;;;;2.50;0.93;;;22.10;79.40;;;;;;5036066;28;20060;-81
2023/07/06 12:28:09;;;;;;;2.08;1.00;;;22.20;79.00;;;;;;5025221;28;20049;-78
2023/07/06 12:30:59;;;;;;;3.10;1.10;;;22.30;77.80;;;;;;5027569;28;20116;-78
2023/07/06 12:33:45;;;;;;;3.60;1.20;;;22.40;77.30;;;;;;5055765;28;20049;-78
2023/07/06 12:36:33;;;;;;;7.68;1.23;;;22.40;77.20;;;;;;5056188;28;20055;-80
2023/07/06 12:39:20;;;;;;;2.90;1.08;;;22.60;76.90;;;;;;5043748;28;20475;-79
2023/07/06 12:42:12;;;;;;;3.23;1.20;;;22.60;76.60;;;;;;5017634;28;20060;-78
2023/07/06 12:44:58;;;;;;;2.78;1.48;;;22.50;76.20;;;;;;5050985;28;20272;-79
2023/07/06 12:47:44;;;;;;;4.25;1.50;;;22.40;75.80;;;;;;5036897;28;20124;-79
2023/07/06 12:50:35;;;;;;;3.58;1.17;;;22.10;76.60;;;;;;5052396;28;20714;-80
2023/07/06 12:53:24;;;;;;;4.78;1.50;;;21.80;77.80;;;;;;5022565;28;20045;-78
2023/07/06 12:56:13;;;;;;;2.38;1.30;;;21.60;77.80;;;;;;5031892;28;20045;-78
2023/07/06 12:59:03;;;;;;;5.18;1.33;;;21.60;77.60;;;;;;5020170;28;20034;-79
2023/07/06 13:01:49;;;;;;;4.63;1.40;;;21.70;79.40;;;;;;5026151;28;20037;-79
2023/07/06 13:04:43;;;;;;;4.22;1.10;;;21.70;77.70;;;;;;5023295;28;20140;-81
2023/07/06 13:07:29;;;;;;;4.07;1.27;;;21.70;79.00;;;;;;5022737;28;20106;-81
2023/07/06 13:10:15;;;;;;;2.65;1.15;;;21.80;79.20;;;;;;5042066;28;20414;-81
2023/07/06 13:13:23;;;;;;;3.13;1.20;;;22.00;79.10;;;;;;5018837;28;20037;-81
2023/07/06 13:16:14;;;;;;;2.75;1.52;;;22.20;77.50;;;;;;5038425;28;20044;-80
2023/07/06 13:19:01;;;;;;;2.50;1.17;;;22.20;79.50;;;;;;5050767;28;20049;-81
2023/07/06 13:21:48;;;;;;;3.78;1.20;;;22.40;78.00;;;;;;5040956;28;20135;-79
2023/07/06 13:24:38;;;;;;;3.38;1.30;;;22.30;78.70;;;;;;5038155;28;20072;-82
2023/07/06 13:27:24;;;;;;;2.47;1.00;;;22.20;79.70;;;;;;5048554;28;20037;-81
2023/07/06 13:30:11;;;;;;;3.15;1.30;;;22.40;77.50;;;;;;5012706;28;20044;-80
2023/07/06 13:32:57;;;;;;;5.47;1.53;;;22.30;78.20;;;;;;5037852;28;20057;-81
2023/07/06 13:35:52;;;;;;;8.32;1.95;;;22.50;77.50;;;;;;5016276;28;20045;-80
2023/07/06 13:38:38;;;;;;;2.72;1.23;;;22.20;76.70;;;;;;5013763;28;20128;-81
2023/07/06 13:41:28;;;;;;;3.47;1.30;;;22.10;77.30;;;;;;5015907;28;20056;-79
2023/07/06 13:44:14;;;;;;;3.20;0.90;;;21.80;75.70;;;;;;5014745;28;20141;-80
2023/07/06 13:47:02;;;;;;;3.47;1.20;;;21.70;78.10;;;;;;5029582;28;20041;-78
2023/07/06 13:49:49;;;;;;;2.90;1.30;;;21.60;78.80;;;;;;5039743;28;20434;-80
2023/07/06 13:52:35;;;;;;;3.03;1.00;;;21.70;79.00;;;;;;5021437;28;20075;-79
2023/07/06 13:55:25;;;;;;;4.47;1.17;;;21.70;78.60;;;;;;5036869;28;20097;-82
2023/07/06 13:58:11;;;;;;;3.53;1.00;;;21.80;78.70;;;;;;5027599;28;20049;-79
2023/07/06 14:00:57;;;;;;;5.03;1.27;;;21.70;79.00;;;;;;5044695;28;20037;-79
2023/07/06 14:03:44;;;;;;;2.17;1.15;;;21.70;79.60;;;;;;5028567;28;20766;-80
2023/07/06 14:06:31;;;;;;;2.95;1.20;;;21.70;78.80;;;;;;5012052;28;20041;-79
2023/07/06 14:09:17;;;;;;;5.45;1.30;;;21.80;78.80;;;;;;5027233;28;20025;-82
2023/07/06 14:12:05;;;;;;;3.88;1.20;;;22.00;79.50;;;;;;5016350;28;20080;-81
2023/07/06 14:14:51;;;;;;;3.67;1.20;;;22.20;79.30;;;;;;5027893;28;20055;-80
2023/07/06 14:17:37;;;;;;;2.90;1.30;;;22.40;79.30;;;;;;5015048;28;20045;-81
2023/07/06 14:20:23;;;;;;;6.45;1.25;;;22.60;78.30;;;;;;5039328;28;20044;-79
2023/07/06 14:23:16;;;;;;;3.78;1.20;;;22.40;77.20;;;;;;5038919;28;20120;-81
2023/07/06 14:26:02;;;;;;;3.75;1.42;;;22.30;78.40;;;;;;5011707;28;20037;-80
2023/07/06 14:28:50;;;;;;;4.75;1.30;;;22.20;78.30;;;;;;5049038;28;20041;-81
2023/07/06 14:31:38;;;;;;;5.72;1.63;;;22.30;78.00;;;;;;5033232;28;20429;-80
2023/07/06 14:34:24;;;;;;;2.67;1.25;;;22.40;78.20;;;;;;5023341;28;20115;-79
2023/07/06 14:37:10;;;;;;;4.78;1.40;;;22.40;78.90;;;;;;5027517;28;20591;-79
2023/07/06 14:39:56;;;;;;;4.15;1.20;;;22.40;77.20;;;;;;5020197;28;20493;-78
2023/07/06 14:42:44;;;;;;;3.63;1.33;;;22.30;75.00;;;;;;5013551;28;20045;-82